Time;durP1;ratioP1;P1;durP2;ratioP2;P2;SDS_P1;SDS_P2;PMS_P1;PMS_P2;Temp;Humidity;BMP_temperature;BMP_pressure;BME280_temperature;BME280_humidity;BME280_pressure;Samples;Min_cycle;Max_cycle;Signal;HPM_P1;HPM_P2
2022/10/17 00:01:08;;;;;;;;;6.00;6.00;;;;;;;;5062360;27;8942;-78
2022/10/17 00:03:37;;;;;;;;;5.60;4.60;;;;;;;;5066410;27;8925;-77
2022/10/17 00:06:07;;;;;;;;;7.75;6.75;;;;;;;;5046935;27;8825;-78
2022/10/17 00:08:35;;;;;;;;;7.75;7.00;;;;;;;;5066784;27;8815;-78
2022/10/17 00:11:09;;;;;;;;;7.00;7.00;;;;;;;;5059071;27;8839;-79
2022/10/17 00:13:36;;;;;;;;;6.80;6.80;;;;;;;;5070120;27;8841;-79
2022/10/17 00:16:05;;;;;;;;;5.00;5.00;;;;;;;;5067495;27;9892;-79
2022/10/17 00:18:32;;;;;;;;;7.20;6.00;;;;;;;;5043245;27;8927;-79
2022/10/17 00:21:00;;;;;;;;;7.00;7.00;;;;;;;;5049201;27;8815;-78
2022/10/17 00:23:29;;;;;;;;;7.00;7.00;;;;;;;;5063068;27;8861;-78
2022/10/17 00:26:00;;;;;;;;;6.80;6.80;;;;;;;;5026012;27;8829;-79
2022/10/17 00:28:29;;;;;;;;;6.75;6.75;;;;;;;;5053594;28;8933;-79
2022/10/17 00:30:58;;;;;;;;;2.00;2.00;;;;;;;;5037111;28;8849;-79
2022/10/17 00:33:25;;;;;;;;;8.75;8.75;;;;;;;;5034406;28;8980;-80
2022/10/17 00:36:03;;;;;;;;;6.50;6.50;;;;;;;;5054374;27;8835;-79
2022/10/17 00:38:31;;;;;;;;;6.75;6.75;;;;;;;;5025562;27;8830;-78
2022/10/17 00:40:58;;;;;;;;;6.00;6.00;;;;;;;;5048719;27;8827;-79
2022/10/17 00:43:28;;;;;;;;;6.75;6.75;;;;;;;;5042434;27;8853;-79
2022/10/17 00:45:57;;;;;;;;;10.00;7.00;;;;;;;;5050761;27;8924;-79
2022/10/17 00:48:26;;;;;;;;;8.75;7.75;;;;;;;;5034919;27;8833;-79
2022/10/17 00:50:53;;;;;;;;;7.75;7.75;;;;;;;;5054327;27;8853;-77
2022/10/17 00:53:21;;;;;;;;;6.00;6.00;;;;;;;;5063920;27;9037;-78
2022/10/17 00:55:51;;;;;;;;;7.20;6.00;;;;;;;;5053488;27;8849;-78
2022/10/17 00:58:18;;;;;;;;;5.40;5.40;;;;;;;;5046753;27;8849;-78
2022/10/17 01:00:47;;;;;;;;;6.40;6.40;;;;;;;;5052159;27;8859;-78
2022/10/17 01:03:17;;;;;;;;;6.50;6.50;;;;;;;;5047065;27;8869;-79
2022/10/17 01:05:44;;;;;;;;;6.40;6.40;;;;;;;;5055742;27;8860;-78
2022/10/17 01:08:12;;;;;;;;;7.00;7.00;;;;;;;;5053904;27;8835;-80
2022/10/17 01:10:46;;;;;;;;;6.60;6.60;;;;;;;;5018825;27;8881;-80
2022/10/17 01:13:22;;;;;;;;;5.75;5.75;;;;;;;;5043686;27;8831;-80
2022/10/17 01:15:56;;;;;;;;;10.00;8.20;;;;;;;;5054436;27;8811;-80
2022/10/17 01:18:38;;;;;;;;;6.40;6.40;;;;;;;;5066105;27;8857;-80
2022/10/17 01:21:41;;;;;;;;;7.20;7.20;;;;;;;;5079449;27;8879;-79
2022/10/17 01:24:42;;;;;;;;;6.60;6.60;;;;;;;;5046389;27;8858;-78
2022/10/17 01:27:42;;;;;;;;;6.80;6.80;;;;;;;;5052987;27;8854;-79
2022/10/17 01:30:45;;;;;;;;;7.60;7.60;;;;;;;;5049504;27;9684;-78
2022/10/17 01:33:20;;;;;;;;;8.60;7.80;;;;;;;;5002472;27;8929;-79
2022/10/17 01:35:53;;;;;;;;;6.40;6.40;;;;;;;;5061025;27;8859;-79
2022/10/17 01:38:25;;;;;;;;;5.60;5.60;;;;;;;;5059329;27;9610;-78
2022/10/17 01:41:00;;;;;;;;;8.60;6.60;;;;;;;;5072588;27;8851;-79
2022/10/17 01:43:33;;;;;;;;;6.80;6.80;;;;;;;;5076415;27;8866;-78
2022/10/17 01:46:05;;;;;;;;;8.80;8.60;;;;;;;;5044930;27;8847;-78
2022/10/17 01:48:37;;;;;;;;;6.00;6.00;;;;;;;;5068709;27;8851;-79
2022/10/17 01:51:11;;;;;;;;;6.80;6.80;;;;;;;;5049090;27;8829;-79
2022/10/17 01:53:43;;;;;;;;;7.00;6.20;;;;;;;;5072053;27;8880;-79
2022/10/17 01:56:12;;;;;;;;;7.40;7.40;;;;;;;;5040106;27;8873;-78
2022/10/17 01:58:43;;;;;;;;;6.40;6.40;;;;;;;;5082682;27;8886;-79
2022/10/17 02:01:13;;;;;;;;;7.40;7.40;;;;;;;;5032972;27;8928;-79
2022/10/17 02:03:44;;;;;;;;;5.80;5.20;;;;;;;;5085815;27;8863;-79
2022/10/17 02:06:12;;;;;;;;;10.20;8.40;;;;;;;;5047298;27;8835;-78
2022/10/17 02:08:44;;;;;;;;;7.20;7.20;;;;;;;;5031829;27;8993;-79
2022/10/17 02:11:15;;;;;;;;;6.00;6.00;;;;;;;;5051674;27;8983;-78
2022/10/17 02:14:06;;;;;;;;;8.00;7.00;;;;;;;;5077112;27;8877;-77
2022/10/17 02:16:38;;;;;;;;;4.00;4.00;;;;;;;;5065624;27;8838;-79
2022/10/17 02:19:31;;;;;;;;;7.40;7.40;;;;;;;;5052158;27;8887;-78
2022/10/17 02:22:06;;;;;;;;;6.00;6.00;;;;;;;;5054971;27;8866;-79
2022/10/17 02:24:38;;;;;;;;;6.60;6.60;;;;;;;;4994887;27;8855;-79
2022/10/17 02:27:10;;;;;;;;;8.20;8.20;;;;;;;;5060285;27;8843;-79
2022/10/17 02:29:46;;;;;;;;;8.40;7.20;;;;;;;;5056042;27;8851;-79
2022/10/17 02:32:17;;;;;;;;;5.00;5.00;;;;;;;;5063235;27;8834;-79
2022/10/17 02:34:49;;;;;;;;;6.60;6.60;;;;;;;;5053441;27;8845;-78
2022/10/17 02:37:19;;;;;;;;;8.60;7.60;;;;;;;;5048342;27;8978;-78
2022/10/17 02:39:47;;;;;;;;;6.00;6.00;;;;;;;;5073066;27;9684;-79
2022/10/17 02:42:16;;;;;;;;;10.00;8.00;;;;;;;;5074556;27;8819;-79
2022/10/17 02:44:45;;;;;;;;;3.20;3.20;;;;;;;;5035292;27;8837;-78
2022/10/17 02:47:18;;;;;;;;;6.80;6.80;;;;;;;;5047647;27;8978;-78
2022/10/17 02:49:51;;;;;;;;;8.60;7.00;;;;;;;;5044438;27;8861;-78
2022/10/17 02:52:23;;;;;;;;;6.20;6.20;;;;;;;;5070597;27;8821;-78
2022/10/17 02:54:54;;;;;;;;;7.00;7.00;;;;;;;;5052526;27;8875;-78
2022/10/17 02:57:28;;;;;;;;;7.20;7.20;;;;;;;;5049025;27;8853;-78
2022/10/17 02:59:56;;;;;;;;;5.50;5.50;;;;;;;;5066436;27;8868;-79
2022/10/17 03:02:24;;;;;;;;;6.50;6.50;;;;;;;;5043067;27;8987;-78
2022/10/17 03:04:55;;;;;;;;;6.00;6.00;;;;;;;;5058897;27;8846;-78
2022/10/17 03:07:22;;;;;;;;;6.40;6.40;;;;;;;;5074960;27;8847;-79
2022/10/17 03:09:50;;;;;;;;;7.60;6.80;;;;;;;;5031507;27;8938;-78
2022/10/17 03:12:17;;;;;;;;;6.40;6.40;;;;;;;;5035079;27;8854;-78
2022/10/17 03:14:45;;;;;;;;;6.40;6.40;;;;;;;;5036284;27;8850;-78
2022/10/17 03:17:12;;;;;;;;;6.00;6.00;;;;;;;;5029841;27;8843;-79
2022/10/17 03:19:40;;;;;;;;;6.80;6.80;;;;;;;;5062431;27;8855;-78
2022/10/17 03:22:08;;;;;;;;;7.80;6.20;;;;;;;;5047228;27;8873;-77
2022/10/17 03:24:36;;;;;;;;;7.00;7.00;;;;;;;;5059345;27;9631;-78
2022/10/17 03:27:04;;;;;;;;;7.00;7.00;;;;;;;;5054899;27;8825;-78
2022/10/17 03:29:31;;;;;;;;;7.40;7.40;;;;;;;;5069812;27;8859;-78
2022/10/17 03:31:59;;;;;;;;;7.80;7.00;;;;;;;;5068668;27;8841;-78
2022/10/17 03:34:26;;;;;;;;;6.00;5.60;;;;;;;;5048705;27;8975;-78
2022/10/17 03:36:54;;;;;;;;;9.20;7.60;;;;;;;;5039804;27;8829;-78
2022/10/17 03:39:23;;;;;;;;;5.80;5.80;;;;;;;;5064394;27;8847;-78
2022/10/17 03:41:51;;;;;;;;;10.40;8.80;;;;;;;;5066235;27;9177;-79
2022/10/17 03:44:18;;;;;;;;;6.40;6.40;;;;;;;;5062984;27;8855;-78
2022/10/17 03:46:45;;;;;;;;;7.00;7.00;;;;;;;;5037124;27;8835;-80
2022/10/17 03:49:14;;;;;;;;;7.00;7.00;;;;;;;;5035791;27;8863;-78
2022/10/17 03:51:42;;;;;;;;;9.40;6.40;;;;;;;;5062141;27;8841;-78
2022/10/17 03:54:10;;;;;;;;;8.00;6.00;;;;;;;;5053754;27;8902;-78
2022/10/17 03:56:39;;;;;;;;;5.60;4.00;;;;;;;;5050493;27;9332;-78
2022/10/17 03:59:09;;;;;;;;;8.00;8.00;;;;;;;;5033615;27;8969;-78
2022/10/17 04:01:39;;;;;;;;;7.00;7.00;;;;;;;;5044811;27;8961;-79
2022/10/17 04:04:08;;;;;;;;;5.20;5.20;;;;;;;;5043477;27;8846;-78
2022/10/17 04:06:36;;;;;;;;;9.80;7.40;;;;;;;;5050754;27;8856;-78
2022/10/17 04:09:04;;;;;;;;;7.00;7.00;;;;;;;;5051659;27;8823;-78
2022/10/17 04:11:32;;;;;;;;;8.00;6.00;;;;;;;;5051464;27;8970;-78
2022/10/17 04:14:01;;;;;;;;;8.00;6.00;;;;;;;;5065346;27;8981;-79
2022/10/17 04:16:28;;;;;;;;;7.80;7.80;;;;;;;;5054382;28;9918;-79
2022/10/17 04:18:58;;;;;;;;;7.00;7.00;;;;;;;;5049680;27;8918;-80
2022/10/17 04:21:26;;;;;;;;;6.20;6.20;;;;;;;;5052670;27;8843;-80
2022/10/17 04:23:55;;;;;;;;;6.00;6.00;;;;;;;;5043198;27;8830;-79
2022/10/17 04:26:22;;;;;;;;;5.00;5.00;;;;;;;;5045197;28;9734;-78
2022/10/17 04:28:50;;;;;;;;;6.80;6.00;;;;;;;;5056425;27;8854;-79
2022/10/17 04:31:22;;;;;;;;;7.00;7.00;;;;;;;;5057483;27;8835;-79
2022/10/17 04:33:50;;;;;;;;;6.25;6.25;;;;;;;;5026791;27;8987;-78
2022/10/17 04:36:20;;;;;;;;;5.60;5.60;;;;;;;;5034016;28;8851;-83
2022/10/17 04:38:47;;;;;;;;;5.60;5.60;;;;;;;;5053460;27;8860;-78
2022/10/17 04:41:17;;;;;;;;;7.00;7.00;;;;;;;;5042943;28;8884;-79
2022/10/17 04:43:44;;;;;;;;;6.00;6.00;;;;;;;;5057233;28;8849;-78
2022/10/17 04:46:13;;;;;;;;;6.20;4.80;;;;;;;;5037196;28;8812;-79
2022/10/17 04:48:43;;;;;;;;;6.40;6.40;;;;;;;;5040055;27;8803;-79
2022/10/17 04:51:13;;;;;;;;;6.40;6.00;;;;;;;;5062385;28;8798;-79
2022/10/17 04:53:42;;;;;;;;;5.00;5.00;;;;;;;;5022164;28;8839;-78
2022/10/17 04:56:13;;;;;;;;;6.80;5.40;;;;;;;;5032440;27;8871;-79
2022/10/17 04:58:42;;;;;;;;;5.75;5.50;;;;;;;;5048871;27;8827;-79
2022/10/17 05:01:11;;;;;;;;;6.00;6.00;;;;;;;;5040005;27;8811;-79
2022/10/17 05:03:55;;;;;;;;;5.00;5.00;;;;;;;;5069507;28;8858;-79
2022/10/17 05:06:24;;;;;;;;;6.00;6.00;;;;;;;;5034596;28;8862;-78
2022/10/17 05:08:51;;;;;;;;;7.50;6.00;;;;;;;;5031084;27;8867;-77
2022/10/17 05:11:21;;;;;;;;;4.50;4.50;;;;;;;;5036902;27;9640;-79
2022/10/17 05:13:51;;;;;;;;;6.25;6.00;;;;;;;;5050923;28;8877;-78
2022/10/17 05:16:19;;;;;;;;;5.00;5.00;;;;;;;;5042150;27;8819;-79
2022/10/17 05:18:49;;;;;;;;;5.60;5.60;;;;;;;;5043692;27;8837;-79
2022/10/17 05:21:18;;;;;;;;;5.20;5.20;;;;;;;;5045177;27;8839;-79
2022/10/17 05:23:47;;;;;;;;;6.00;6.00;;;;;;;;5032530;27;8864;-79
2022/10/17 05:26:15;;;;;;;;;6.00;6.00;;;;;;;;5043444;27;8861;-79
2022/10/17 05:28:42;;;;;;;;;4.20;4.20;;;;;;;;5040470;27;8822;-79
2022/10/17 05:31:11;;;;;;;;;5.50;5.50;;;;;;;;5073321;27;8861;-79
2022/10/17 05:33:41;;;;;;;;;4.20;4.20;;;;;;;;5125744;27;8843;-80
2022/10/17 05:36:09;;;;;;;;;8.00;7.00;;;;;;;;5038534;27;8835;-82
2022/10/17 05:38:38;;;;;;;;;5.20;5.20;;;;;;;;5045499;27;8838;-81
2022/10/17 05:41:09;;;;;;;;;5.50;5.50;;;;;;;;5056667;27;8879;-80
2022/10/17 05:43:36;;;;;;;;;8.00;6.25;;;;;;;;5023581;27;8981;-80
2022/10/17 05:46:05;;;;;;;;;5.00;5.00;;;;;;;;5076349;27;8935;-77
2022/10/17 05:48:32;;;;;;;;;7.75;5.75;;;;;;;;5065406;27;8871;-78
2022/10/17 05:51:01;;;;;;;;;6.00;6.00;;;;;;;;5076724;27;8942;-83
2022/10/17 05:53:31;;;;;;;;;7.00;7.00;;;;;;;;5042587;27;8853;-83
2022/10/17 05:56:02;;;;;;;;;6.00;6.00;;;;;;;;5067082;27;8852;-80
2022/10/17 05:58:29;;;;;;;;;4.75;4.75;;;;;;;;5075032;27;8947;-82
2022/10/17 06:01:03;;;;;;;;;6.00;6.00;;;;;;;;5053878;27;8857;-82
2022/10/17 06:03:31;;;;;;;;;7.75;6.75;;;;;;;;5064430;27;8889;-81
2022/10/17 06:06:04;;;;;;;;;6.00;6.00;;;;;;;;5049857;27;9011;-82
2022/10/17 06:08:32;;;;;;;;;5.25;5.00;;;;;;;;5063798;27;9577;-81
2022/10/17 06:11:01;;;;;;;;;7.50;6.00;;;;;;;;5072614;27;8849;-82
2022/10/17 06:13:28;;;;;;;;;3.75;3.75;;;;;;;;5053808;27;8924;-81
2022/10/17 06:15:56;;;;;;;;;7.25;7.25;;;;;;;;5055163;27;8834;-82
2022/10/17 06:18:23;;;;;;;;;6.75;6.75;;;;;;;;5060469;27;8872;-82
2022/10/17 06:20:51;;;;;;;;;6.50;6.50;;;;;;;;5068532;27;8822;-82
2022/10/17 06:23:19;;;;;;;;;8.00;6.25;;;;;;;;5049169;27;8835;-85
2022/10/17 06:25:46;;;;;;;;;5.50;4.00;;;;;;;;5063550;27;8988;-86
2022/10/17 06:28:16;;;;;;;;;6.75;6.75;;;;;;;;5051238;27;8845;-85
2022/10/17 06:30:43;;;;;;;;;7.50;7.50;;;;;;;;5074237;27;9605;-76
2022/10/17 06:33:11;;;;;;;;;7.00;7.00;;;;;;;;5046318;27;8883;-77
2022/10/17 06:35:39;;;;;;;;;8.25;7.00;;;;;;;;5031301;27;8853;-78
2022/10/17 06:38:06;;;;;;;;;9.00;7.25;;;;;;;;5027887;27;9752;-80
2022/10/17 06:40:36;;;;;;;;;6.00;6.00;;;;;;;;5027715;27;8898;-78
2022/10/17 06:43:04;;;;;;;;;7.75;6.75;;;;;;;;5038253;27;8845;-79
2022/10/17 06:45:32;;;;;;;;;6.75;6.75;;;;;;;;5033323;27;8861;-78
2022/10/17 06:48:00;;;;;;;;;11.50;9.25;;;;;;;;5049522;27;8823;-78
2022/10/17 06:50:27;;;;;;;;;8.75;7.00;;;;;;;;5052600;27;8980;-76
2022/10/17 06:52:54;;;;;;;;;9.00;7.75;;;;;;;;5043404;27;8861;-75
2022/10/17 06:55:22;;;;;;;;;8.75;7.75;;;;;;;;5051238;27;8817;-75
2022/10/17 06:57:50;;;;;;;;;7.00;6.00;;;;;;;;5034596;27;8880;-75
2022/10/17 07:00:18;;;;;;;;;11.00;9.75;;;;;;;;5032232;27;8857;-75
2022/10/17 07:02:47;;;;;;;;;9.75;8.00;;;;;;;;5042766;27;8884;-74
2022/10/17 07:05:15;;;;;;;;;9.00;9.00;;;;;;;;5019934;27;8865;-76
2022/10/17 07:07:42;;;;;;;;;7.75;7.25;;;;;;;;5038341;27;8865;-79
2022/10/17 07:10:10;;;;;;;;;7.75;7.75;;;;;;;;5039466;27;8865;-74
2022/10/17 07:12:38;;;;;;;;;6.75;6.75;;;;;;;;5041202;27;8940;-74
2022/10/17 07:15:06;;;;;;;;;12.00;7.50;;;;;;;;5041986;27;8861;-76
2022/10/17 07:17:34;;;;;;;;;11.25;7.25;;;;;;;;5028821;27;8825;-75
2022/10/17 07:20:03;;;;;;;;;7.00;7.00;;;;;;;;5035137;27;8826;-76
2022/10/17 07:22:31;;;;;;;;;7.00;7.00;;;;;;;;5062589;27;8896;-78
2022/10/17 07:24:58;;;;;;;;;7.75;7.75;;;;;;;;5053897;27;8853;-74
2022/10/17 07:27:25;;;;;;;;;11.25;6.00;;;;;;;;5053677;27;8871;-76
2022/10/17 07:29:53;;;;;;;;;10.50;7.75;;;;;;;;5064659;27;8851;-74
2022/10/17 07:32:21;;;;;;;;;8.00;6.50;;;;;;;;5022829;27;8829;-75
2022/10/17 07:34:48;;;;;;;;;4.25;4.25;;;;;;;;5042070;27;8845;-75
2022/10/17 07:37:17;;;;;;;;;7.00;7.00;;;;;;;;5051300;27;8887;-74
2022/10/17 07:39:45;;;;;;;;;8.75;7.50;;;;;;;;5024481;27;8837;-74
2022/10/17 07:42:14;;;;;;;;;6.00;6.00;;;;;;;;5064232;27;8843;-74
2022/10/17 07:44:44;;;;;;;;;7.25;7.25;;;;;;;;5054360;27;8847;-74
2022/10/17 07:47:12;;;;;;;;;7.50;7.50;;;;;;;;5074694;27;8846;-74
2022/10/17 07:49:42;;;;;;;;;6.75;6.75;;;;;;;;5046340;27;8910;-75
2022/10/17 07:52:11;;;;;;;;;8.00;8.00;;;;;;;;5029139;27;8941;-74
2022/10/17 07:54:40;;;;;;;;;7.25;7.25;;;;;;;;5030755;27;8882;-77
2022/10/17 07:57:08;;;;;;;;;6.25;6.25;;;;;;;;5038839;27;8935;-80
2022/10/17 07:59:38;;;;;;;;;6.75;6.75;;;;;;;;5030150;27;8854;-77
2022/10/17 08:02:14;;;;;;;;;9.00;8.00;;;;;;;;5074148;27;8842;-74
2022/10/17 08:04:41;;;;;;;;;6.00;6.00;;;;;;;;5068421;27;8960;-77
2022/10/17 08:07:09;;;;;;;;;7.25;6.00;;;;;;;;5022918;27;8843;-79
2022/10/17 08:09:37;;;;;;;;;7.75;7.75;;;;;;;;5023621;28;8850;-77
2022/10/17 08:12:06;;;;;;;;;7.00;7.00;;;;;;;;5051670;27;8942;-77
2022/10/17 08:14:34;;;;;;;;;9.00;7.00;;;;;;;;5039928;27;8835;-77
2022/10/17 08:17:02;;;;;;;;;5.20;5.20;;;;;;;;5063407;27;8839;-76
2022/10/17 08:19:31;;;;;;;;;9.50;7.75;;;;;;;;5062504;27;8830;-75
2022/10/17 08:22:00;;;;;;;;;7.00;7.00;;;;;;;;5025225;27;9633;-76
2022/10/17 08:24:28;;;;;;;;;5.75;5.75;;;;;;;;5040774;27;8863;-73
2022/10/17 08:26:57;;;;;;;;;5.20;5.20;;;;;;;;5048736;28;8850;-73
2022/10/17 08:29:26;;;;;;;;;5.75;5.75;;;;;;;;5040838;27;8831;-75
2022/10/17 08:31:53;;;;;;;;;8.60;6.00;;;;;;;;5057034;27;8900;-75
2022/10/17 08:34:21;;;;;;;;;7.20;7.20;;;;;;;;5043266;27;8950;-76
2022/10/17 08:36:48;;;;;;;;;6.00;6.00;;;;;;;;5046530;27;8869;-74
2022/10/17 08:39:16;;;;;;;;;8.00;8.00;;;;;;;;5038316;27;8901;-75
2022/10/17 08:41:54;;;;;;;;;8.00;8.00;;;;;;;;5046346;28;8838;-74
2022/10/17 08:44:38;;;;;;;;;11.00;8.20;;;;;;;;5029263;28;8888;-76
2022/10/17 08:47:09;;;;;;;;;10.40;7.40;;;;;;;;5033406;27;8889;-74
2022/10/17 08:49:42;;;;;;;;;8.75;8.75;;;;;;;;5051197;27;8861;-74
2022/10/17 08:52:17;;;;;;;;;7.40;7.40;;;;;;;;5093893;27;8824;-74
2022/10/17 08:54:47;;;;;;;;;6.40;6.00;;;;;;;;5047066;28;8939;-74
2022/10/17 08:57:15;;;;;;;;;6.00;6.00;;;;;;;;5046335;27;8849;-74
2022/10/17 08:59:47;;;;;;;;;6.20;5.80;;;;;;;;5094719;27;8861;-73
2022/10/17 09:02:29;;;;;;;;;8.00;6.60;;;;;;;;5055715;27;9200;-73
2022/10/17 09:05:19;;;;;;;;;6.80;6.80;;;;;;;;5034739;27;8837;-73
2022/10/17 09:07:50;;;;;;;;;10.40;8.60;;;;;;;;5034243;27;8822;-74
2022/10/17 09:10:26;;;;;;;;;8.40;7.60;;;;;;;;5062880;27;8964;-74
2022/10/17 09:13:03;;;;;;;;;6.80;6.80;;;;;;;;5031671;27;8822;-74
2022/10/17 09:15:42;;;;;;;;;5.60;5.60;;;;;;;;5039834;27;8851;-73
2022/10/17 09:18:13;;;;;;;;;7.60;7.60;;;;;;;;5053122;27;9646;-72
2022/10/17 09:20:45;;;;;;;;;7.20;6.80;;;;;;;;5039884;27;8956;-75
2022/10/17 09:23:17;;;;;;;;;7.60;7.60;;;;;;;;5040773;27;8881;-73
2022/10/17 09:25:47;;;;;;;;;6.80;6.80;;;;;;;;5053815;27;8968;-74
2022/10/17 09:28:18;;;;;;;;;9.60;6.20;;;;;;;;5084204;27;8877;-76
2022/10/17 09:30:49;;;;;;;;;6.20;6.20;;;;;;;;5019863;27;8845;-74
2022/10/17 09:33:18;;;;;;;;;5.60;5.60;;;;;;;;5058542;27;8934;-74
2022/10/17 09:35:46;;;;;;;;;6.80;6.80;;;;;;;;5049392;27;8811;-75
2022/10/17 09:38:19;;;;;;;;;7.40;7.40;;;;;;;;5040407;27;8851;-77
2022/10/17 09:40:50;;;;;;;;;7.20;5.60;;;;;;;;5045020;27;8837;-75
2022/10/17 09:43:18;;;;;;;;;7.80;7.40;;;;;;;;5058963;27;8847;-76
2022/10/17 09:45:58;;;;;;;;;8.40;8.20;;;;;;;;5067357;27;8838;-76
2022/10/17 09:48:28;;;;;;;;;8.60;6.80;;;;;;;;5020005;27;8857;-76
2022/10/17 09:50:57;;;;;;;;;11.80;7.60;;;;;;;;5049866;27;8859;-77
2022/10/17 09:53:29;;;;;;;;;10.00;8.00;;;;;;;;5062725;27;8829;-75
2022/10/17 09:55:59;;;;;;;;;11.80;9.80;;;;;;;;5037710;27;8856;-78
2022/10/17 09:58:41;;;;;;;;;8.80;6.20;;;;;;;;5052619;27;8835;-74
2022/10/17 10:01:22;;;;;;;;;8.00;6.40;;;;;;;;5051198;27;8849;-74
2022/10/17 10:04:11;;;;;;;;;7.40;6.60;;;;;;;;5052514;27;8847;-77
2022/10/17 10:06:39;;;;;;;;;7.40;7.40;;;;;;;;5055539;27;8839;-76
2022/10/17 10:09:09;;;;;;;;;8.40;8.40;;;;;;;;5049942;27;8864;-77
2022/10/17 10:11:49;;;;;;;;;7.80;6.40;;;;;;;;5035315;27;8857;-76
2022/10/17 10:14:23;;;;;;;;;7.00;7.00;;;;;;;;5029318;28;8949;-79
2022/10/17 10:16:53;;;;;;;;;8.60;6.20;;;;;;;;5060371;27;8863;-77
2022/10/17 10:19:28;;;;;;;;;7.80;6.60;;;;;;;;5054155;27;8887;-81
2022/10/17 10:21:57;;;;;;;;;6.40;6.40;;;;;;;;5045169;27;8875;-78
2022/10/17 10:24:26;;;;;;;;;7.20;7.20;;;;;;;;5066389;27;8835;-78
2022/10/17 10:26:54;;;;;;;;;8.00;6.40;;;;;;;;5046740;27;8837;-80
2022/10/17 10:29:27;;;;;;;;;5.20;5.20;;;;;;;;5041174;27;8837;-80
2022/10/17 10:31:59;;;;;;;;;9.00;7.00;;;;;;;;5040044;27;8832;-78
2022/10/17 10:34:28;;;;;;;;;6.00;6.00;;;;;;;;5041799;27;8871;-80
2022/10/17 10:37:11;;;;;;;;;5.80;5.80;;;;;;;;5057368;27;8908;-78
2022/10/17 10:39:46;;;;;;;;;6.40;6.00;;;;;;;;5028099;27;9704;-79
2022/10/17 10:42:23;;;;;;;;;7.20;7.20;;;;;;;;5052065;27;8848;-79
2022/10/17 10:44:51;;;;;;;;;6.40;6.00;;;;;;;;5048065;27;9900;-78
2022/10/17 10:47:26;;;;;;;;;9.40;8.00;;;;;;;;5016530;28;8857;-80
2022/10/17 10:50:09;;;;;;;;;10.40;8.60;;;;;;;;5054044;27;8857;-80
2022/10/17 10:52:43;;;;;;;;;10.80;7.20;;;;;;;;5066608;27;8851;-78
2022/10/17 10:55:21;;;;;;;;;7.80;7.80;;;;;;;;5057789;27;8870;-83
2022/10/17 10:57:51;;;;;;;;;9.40;7.00;;;;;;;;5043151;27;8961;-78
2022/10/17 11:00:25;;;;;;;;;8.40;8.40;;;;;;;;5046284;27;8945;-79
2022/10/17 11:03:02;;;;;;;;;7.80;7.80;;;;;;;;5040468;27;9723;-78
2022/10/17 11:05:38;;;;;;;;;12.40;8.40;;;;;;;;5064153;27;9553;-79
2022/10/17 11:08:15;;;;;;;;;12.40;10.40;;;;;;;;5029665;27;8908;-80
2022/10/17 11:10:49;;;;;;;;;9.00;9.00;;;;;;;;5036168;27;8857;-78
2022/10/17 11:13:22;;;;;;;;;12.40;9.20;;;;;;;;5054366;27;8843;-76
2022/10/17 11:15:53;;;;;;;;;7.20;6.40;;;;;;;;5059013;27;8857;-77
2022/10/17 11:18:26;;;;;;;;;9.00;9.00;;;;;;;;5045285;27;8974;-78
2022/10/17 11:20:57;;;;;;;;;6.80;6.80;;;;;;;;5032878;27;8904;-77
2022/10/17 11:23:30;;;;;;;;;8.40;8.40;;;;;;;;5054999;27;9020;-78
2022/10/17 11:26:00;;;;;;;;;9.20;9.20;;;;;;;;5048217;27;9621;-78
2022/10/17 11:28:29;;;;;;;;;9.60;8.60;;;;;;;;5023340;27;8868;-78
2022/10/17 11:31:00;;;;;;;;;7.80;7.80;;;;;;;;5025399;27;8857;-78
2022/10/17 11:33:46;;;;;;;;;8.80;7.20;;;;;;;;5036157;27;8852;-77
2022/10/17 11:36:16;;;;;;;;;8.60;8.60;;;;;;;;5062549;27;8968;-76
2022/10/17 11:38:49;;;;;;;;;9.20;8.00;;;;;;;;5014734;28;8880;-77
2022/10/17 11:41:21;;;;;;;;;11.80;9.00;;;;;;;;5055742;27;8862;-76
2022/10/17 11:43:53;;;;;;;;;8.60;8.60;;;;;;;;5038145;27;9011;-77
2022/10/17 11:46:23;;;;;;;;;9.20;5.20;;;;;;;;5046877;27;8851;-76
2022/10/17 11:49:03;;;;;;;;;12.40;9.60;;;;;;;;5041797;27;8858;-76
2022/10/17 11:51:32;;;;;;;;;7.00;5.60;;;;;;;;5052670;27;8829;-75
2022/10/17 11:54:05;;;;;;;;;8.80;8.80;;;;;;;;5065302;27;9025;-76
2022/10/17 11:56:41;;;;;;;;;10.20;8.80;;;;;;;;5054672;27;9651;-76
2022/10/17 11:59:33;;;;;;;;;10.80;9.00;;;;;;;;5039260;27;8890;-76
2022/10/17 12:02:05;;;;;;;;;8.60;8.60;;;;;;;;5039470;27;8961;-77
2022/10/17 12:04:46;;;;;;;;;7.00;7.00;;;;;;;;5054437;27;8996;-77
2022/10/17 12:07:17;;;;;;;;;7.80;7.80;;;;;;;;5076162;27;8837;-78
2022/10/17 12:09:49;;;;;;;;;10.20;10.20;;;;;;;;5047554;27;8842;-79
2022/10/17 12:12:26;;;;;;;;;7.00;7.00;;;;;;;;5007594;28;8844;-76
2022/10/17 12:14:54;;;;;;;;;7.80;7.80;;;;;;;;5037581;27;8838;-77
2022/10/17 12:17:35;;;;;;;;;9.80;8.40;;;;;;;;5034196;28;8879;-77
2022/10/17 12:20:29;;;;;;;;;9.40;9.40;;;;;;;;5015876;28;8899;-76
2022/10/17 12:22:59;;;;;;;;;9.80;9.20;;;;;;;;5025400;28;8889;-77
2022/10/17 12:25:29;;;;;;;;;11.60;10.00;;;;;;;;5067471;27;8932;-76
2022/10/17 12:28:16;;;;;;;;;10.00;8.00;;;;;;;;5036243;27;8839;-75
2022/10/17 12:30:55;;;;;;;;;11.80;11.20;;;;;;;;5035931;28;9603;-75
2022/10/17 12:33:28;;;;;;;;;10.00;10.00;;;;;;;;5025962;27;8973;-76
2022/10/17 12:36:38;;;;;;;;;13.20;11.80;;;;;;;;5053932;27;8891;-76
2022/10/17 12:39:48;;;;;;;;;9.00;9.00;;;;;;;;5041396;27;9599;-75
2022/10/17 12:42:46;;;;;;;;;7.40;7.40;;;;;;;;5036936;27;8989;-76
2022/10/17 12:45:48;;;;;;;;;9.00;9.00;;;;;;;;5022015;27;8860;-75
2022/10/17 12:49:12;;;;;;;;;11.80;10.80;;;;;;;;5036519;27;8841;-76
2022/10/17 12:52:15;;;;;;;;;9.00;9.00;;;;;;;;4992809;27;9124;-76
2022/10/17 12:54:46;;;;;;;;;13.80;13.00;;;;;;;;5029709;27;9071;-76
2022/10/17 12:57:21;;;;;;;;;12.60;12.60;;;;;;;;5052500;27;8871;-76
2022/10/17 12:59:50;;;;;;;;;17.00;16.00;;;;;;;;5051085;27;8880;-77
2022/10/17 13:02:22;;;;;;;;;19.40;19.20;;;;;;;;5060507;27;8851;-76
2022/10/17 13:04:59;;;;;;;;;11.20;11.20;;;;;;;;5035620;27;8829;-76
2022/10/17 13:07:27;;;;;;;;;11.80;10.40;;;;;;;;5035814;27;8955;-76
2022/10/17 13:09:54;;;;;;;;;14.20;14.20;;;;;;;;5023483;27;8863;-75
2022/10/17 13:12:25;;;;;;;;;15.00;13.80;;;;;;;;5060563;27;8977;-76
2022/10/17 13:14:55;;;;;;;;;15.20;14.00;;;;;;;;5022902;27;8865;-76
2022/10/17 13:17:28;;;;;;;;;15.20;14.80;;;;;;;;5035737;28;8862;-75
2022/10/17 13:19:57;;;;;;;;;12.80;11.20;;;;;;;;5029749;27;8853;-75
2022/10/17 13:22:28;;;;;;;;;13.00;13.00;;;;;;;;5053777;27;9032;-77
2022/10/17 13:25:08;;;;;;;;;16.80;13.80;;;;;;;;5037195;27;8985;-78
2022/10/17 13:27:39;;;;;;;;;16.00;16.00;;;;;;;;5046766;27;8827;-78
2022/10/17 13:30:24;;;;;;;;;12.40;12.20;;;;;;;;5058771;27;8847;-78
2022/10/17 13:32:52;;;;;;;;;14.60;14.60;;;;;;;;5040693;27;8846;-77
2022/10/17 13:35:27;;;;;;;;;16.00;14.40;;;;;;;;5045096;27;8883;-79
2022/10/17 13:37:56;;;;;;;;;13.40;13.40;;;;;;;;5027319;27;8889;-79
2022/10/17 13:40:25;;;;;;;;;14.00;14.00;;;;;;;;5025308;27;8857;-78
2022/10/17 13:42:54;;;;;;;;;12.40;12.00;;;;;;;;5046118;27;8859;-77
2022/10/17 13:45:34;;;;;;;;;20.00;15.60;;;;;;;;5053672;27;8831;-79
2022/10/17 13:48:04;;;;;;;;;13.60;12.60;;;;;;;;5047249;27;8826;-76
2022/10/17 13:50:35;;;;;;;;;14.80;14.80;;;;;;;;5050578;27;8869;-76
2022/10/17 13:53:17;;;;;;;;;19.20;16.00;;;;;;;;5056672;27;8882;-79
2022/10/17 13:55:58;;;;;;;;;12.60;12.60;;;;;;;;5052134;27;8834;-78
2022/10/17 13:58:27;;;;;;;;;15.00;15.00;;;;;;;;5043703;27;8979;-79
2022/10/17 14:00:56;;;;;;;;;10.60;10.60;;;;;;;;5044502;27;8837;-80
2022/10/17 14:03:26;;;;;;;;;13.00;13.00;;;;;;;;5046046;27;8829;-81
2022/10/17 14:06:03;;;;;;;;;14.00;13.20;;;;;;;;5031647;27;8960;-77
2022/10/17 14:08:32;;;;;;;;;12.20;9.60;;;;;;;;5053984;27;8849;-79
2022/10/17 14:11:00;;;;;;;;;13.40;13.40;;;;;;;;5040555;27;8884;-80
2022/10/17 14:13:32;;;;;;;;;13.00;13.00;;;;;;;;5042578;27;8868;-78
2022/10/17 14:16:03;;;;;;;;;13.20;12.40;;;;;;;;5052739;27;8835;-82
2022/10/17 14:18:33;;;;;;;;;13.20;12.20;;;;;;;;5046780;27;8879;-76
2022/10/17 14:21:03;;;;;;;;;11.00;10.00;;;;;;;;5034036;27;8873;-80
2022/10/17 14:23:33;;;;;;;;;9.80;9.80;;;;;;;;5039828;27;8849;-81
2022/10/17 14:26:13;;;;;;;;;11.80;11.80;;;;;;;;5031636;27;8847;-82
2022/10/17 14:28:43;;;;;;;;;10.40;10.40;;;;;;;;5027941;27;8837;-81
2022/10/17 14:31:26;;;;;;;;;10.40;10.40;;;;;;;;5037627;27;8830;-80
2022/10/17 14:33:55;;;;;;;;;13.20;11.60;;;;;;;;5039712;27;8865;-79
2022/10/17 14:36:36;;;;;;;;;9.00;9.00;;;;;;;;5039928;27;8873;-79
2022/10/17 14:39:06;;;;;;;;;10.00;10.00;;;;;;;;5037802;27;8901;-79
2022/10/17 14:41:39;;;;;;;;;10.80;10.80;;;;;;;;5058501;27;8869;-78
2022/10/17 14:44:16;;;;;;;;;15.00;12.00;;;;;;;;5050665;27;8839;-79
2022/10/17 14:46:48;;;;;;;;;10.60;10.60;;;;;;;;5077618;27;8854;-79
2022/10/17 14:49:18;;;;;;;;;12.40;12.40;;;;;;;;5028045;27;9689;-78
2022/10/17 14:52:25;;;;;;;;;7.80;7.80;;;;;;;;5031729;27;8864;-78
2022/10/17 14:54:53;;;;;;;;;11.80;11.00;;;;;;;;5014358;27;9635;-78
2022/10/17 14:57:25;;;;;;;;;13.40;11.80;;;;;;;;5038974;27;8981;-79
2022/10/17 14:59:53;;;;;;;;;12.40;9.80;;;;;;;;5030861;27;8845;-79
2022/10/17 15:02:22;;;;;;;;;8.20;8.20;;;;;;;;5056843;27;8847;-77
2022/10/17 15:04:50;;;;;;;;;7.00;7.00;;;;;;;;5043169;27;8905;-77
2022/10/17 15:07:22;;;;;;;;;10.60;8.00;;;;;;;;5040670;27;8938;-78
2022/10/17 15:09:52;;;;;;;;;12.40;11.00;;;;;;;;5045149;27;9719;-78
2022/10/17 15:12:23;;;;;;;;;5.60;5.20;;;;;;;;5039001;27;8937;-78
2022/10/17 15:14:51;;;;;;;;;7.00;7.00;;;;;;;;5046907;27;8968;-79
2022/10/17 15:17:22;;;;;;;;;8.20;8.20;;;;;;;;5029884;27;8857;-78
2022/10/17 15:19:50;;;;;;;;;10.20;8.60;;;;;;;;5060883;27;8840;-76